Crichton, West Virginia
Current Conditions -  °F | °C
As of 12:15 AM on Wednesday 26 Nov 2014 (Local Time) from KLWB Reporting Station
Broken Clouds Broken Clouds  
Wind Chill: 32°   Ceiling: 12000
Heat Index: 38°   Visibility: 10mi
Dew Point: 28°   Wind: 8mph
Humidity: 67%   Direction: 20°NNE
Pressure: 30.06"   Gusts: NA
Location:  38.06°N, 80.72°W
Report Text: KLWB 260515Z AUTO 02007KT 10SM BKN120 03/M02 A3006 RMK AO2 T00341022
Loading
Personal Weather Stations






























Interactive Weather Map New forecast layout! Learn more

10-Day Weather Forecast

Advertisements
Track Severe Weather on mobile